createdAt,value
2022-09-07T00:01:31.620Z,47.70
2022-09-07T00:04:01.073Z,47.64
2022-09-07T00:06:29.512Z,47.86
2022-09-07T00:08:58.509Z,47.32
2022-09-07T00:11:26.549Z,46.88
2022-09-07T00:13:55.049Z,46.40
2022-09-07T00:16:28.884Z,46.53
2022-09-07T00:18:59.590Z,46.36
2022-09-07T00:21:33.789Z,46.33
2022-09-07T00:24:02.139Z,47.12
2022-09-07T00:26:31.621Z,48.49
2022-09-07T00:29:02.797Z,48.41
2022-09-07T00:31:32.250Z,49.07
2022-09-07T00:34:02.247Z,50.13
2022-09-07T00:36:31.598Z,52.90
2022-09-07T00:38:59.564Z,53.13
2022-09-07T00:41:27.591Z,53.92
2022-09-07T00:43:58.765Z,54.40
2022-09-07T00:46:29.908Z,55.94
2022-09-07T00:49:08.132Z,55.46
2022-09-07T00:51:46.094Z,57.30
2022-09-07T00:54:20.493Z,59.00
2022-09-07T00:56:52.882Z,59.86
2022-09-07T00:59:27.292Z,59.97
2022-09-07T01:01:56.197Z,59.74
2022-09-07T01:04:25.857Z,60.28
2022-09-07T01:06:56.729Z,59.84
2022-09-07T01:09:28.765Z,60.31
2022-09-07T01:11:59.992Z,60.71
2022-09-07T01:14:33.329Z,62.22
2022-09-07T01:17:15.588Z,62.59
2022-09-07T01:20:42.102Z,62.53
2022-09-07T01:23:51.918Z,64.04
2022-09-07T01:27:01.717Z,64.28
2022-09-07T01:29:45.972Z,64.99
2022-09-07T01:32:42.210Z,66.18
2022-09-07T01:35:22.003Z,66.90
2022-09-07T01:38:02.291Z,67.44
2022-09-07T01:40:43.064Z,66.95
2022-09-07T01:43:19.792Z,67.64
2022-09-07T01:45:57.034Z,68.64
2022-09-07T01:48:27.186Z,68.59
2022-09-07T01:51:02.597Z,69.92
2022-09-07T01:53:41.540Z,70.14
2022-09-07T01:56:16.737Z,69.69
2022-09-07T01:58:52.458Z,70.92
2022-09-07T02:01:34.529Z,70.74
2022-09-07T02:04:12.005Z,71.38
2022-09-07T02:06:47.095Z,71.70
2022-09-07T02:09:27.990Z,71.62
2022-09-07T02:12:02.948Z,72.06
2022-09-07T02:14:38.143Z,72.28
2022-09-07T02:17:13.538Z,70.81
2022-09-07T02:19:52.767Z,70.92
2022-09-07T02:22:32.089Z,71.46
2022-09-07T02:25:06.303Z,71.34
2022-09-07T02:27:41.558Z,69.74
2022-09-07T02:30:10.353Z,70.84
2022-09-07T02:32:40.830Z,72.23
2022-09-07T02:35:11.314Z,73.03
2022-09-07T02:37:42.652Z,72.85
2022-09-07T02:40:12.729Z,73.03
2022-09-07T02:42:42.763Z,73.96
2022-09-07T02:45:15.441Z,73.74
2022-09-07T02:48:06.385Z,73.32
2022-09-07T02:51:00.570Z,72.90
2022-09-07T02:53:52.701Z,71.62
2022-09-07T02:56:44.314Z,72.83
2022-09-07T02:59:27.256Z,72.99
2022-09-07T03:02:06.106Z,73.58
2022-09-07T03:04:46.657Z,73.92
2022-09-07T03:07:21.272Z,74.18
2022-09-07T03:09:54.930Z,73.87
2022-09-07T03:12:22.922Z,74.24
2022-09-07T03:14:53.086Z,74.67
2022-09-07T03:17:21.181Z,74.84
2022-09-07T03:19:50.446Z,74.35
2022-09-07T03:22:19.502Z,74.82
2022-09-07T03:24:48.362Z,75.10
2022-09-07T03:27:16.822Z,75.15
2022-09-07T03:29:46.864Z,74.66
2022-09-07T03:32:15.243Z,74.91
2022-09-07T03:34:43.246Z,75.02
2022-09-07T03:37:12.560Z,76.35
2022-09-07T03:39:40.806Z,75.36
2022-09-07T03:42:08.918Z,75.51
2022-09-07T03:44:36.865Z,75.07
2022-09-07T03:47:06.510Z,75.32
2022-09-07T03:49:34.985Z,76.30
2022-09-07T03:52:04.542Z,76.16
2022-09-07T03:54:37.753Z,75.54
2022-09-07T03:57:08.257Z,76.80
2022-09-07T03:59:39.468Z,77.32
2022-09-07T04:02:07.607Z,77.57
2022-09-07T04:08:07.105Z,77.77
2022-09-07T04:10:39.526Z,78.54
2022-09-07T04:13:08.351Z,77.58
2022-09-07T04:15:37.169Z,78.30
2022-09-07T04:18:05.192Z,77.31
2022-09-07T04:20:33.615Z,78.48
2022-09-07T04:23:01.530Z,76.92
2022-09-07T04:25:30.219Z,76.47
2022-09-07T04:28:00.393Z,77.07
2022-09-07T04:30:28.547Z,77.53
2022-09-07T04:32:56.625Z,77.56
2022-09-07T04:35:24.709Z,78.48
2022-09-07T04:37:52.709Z,78.00
2022-09-07T04:40:22.093Z,78.22
2022-09-07T04:42:51.129Z,78.78
2022-09-07T04:45:22.117Z,78.25
2022-09-07T04:47:50.862Z,77.72
2022-09-07T04:50:19.357Z,78.21
2022-09-07T04:52:49.111Z,78.24
2022-09-07T04:55:17.395Z,78.46
2022-09-07T04:57:45.389Z,77.96
2022-09-07T05:00:14.734Z,77.46
2022-09-07T05:02:45.269Z,77.95
2022-09-07T05:05:13.730Z,78.81
2022-09-07T05:07:43.001Z,79.51
2022-09-07T05:10:12.157Z,79.66
2022-09-07T05:12:40.365Z,79.51
2022-09-07T05:15:13.623Z,79.73
2022-09-07T05:17:42.905Z,80.71
2022-09-07T05:20:10.973Z,80.00
2022-09-07T05:22:41.086Z,78.67
2022-09-07T05:25:10.777Z,78.41
2022-09-07T05:27:40.134Z,78.47
2022-09-07T05:33:05.155Z,78.63
2022-09-07T05:35:33.117Z,78.08
2022-09-07T05:38:02.441Z,78.10
2022-09-07T05:40:36.176Z,79.46
2022-09-07T05:43:06.448Z,79.36
2022-09-07T05:45:37.377Z,79.59
2022-09-07T05:48:07.725Z,80.40
2022-09-07T05:50:35.934Z,80.42
2022-09-07T05:53:05.033Z,81.01
2022-09-07T05:55:33.521Z,80.41
2022-09-07T05:58:04.054Z,81.06
2022-09-07T06:00:32.017Z,79.92
2022-09-07T06:03:00.176Z,79.28
2022-09-07T06:05:33.564Z,78.03
2022-09-07T06:08:01.766Z,78.36
2022-09-07T06:10:49.945Z,77.19
2022-09-07T06:13:18.017Z,77.57
2022-09-07T06:15:46.088Z,77.26
2022-09-07T06:18:15.048Z,77.35
2022-09-07T06:20:44.384Z,76.92
2022-09-07T06:23:12.317Z,76.36
2022-09-07T06:25:50.202Z,77.00
2022-09-07T06:28:18.247Z,76.37
2022-09-07T06:30:46.595Z,75.98
2022-09-07T06:33:18.085Z,75.12
2022-09-07T06:35:57.743Z,74.87
2022-09-07T06:38:31.860Z,75.58
2022-09-07T06:43:53.596Z,75.05
2022-09-07T06:49:10.927Z,73.23
2022-09-07T06:51:40.297Z,72.79
2022-09-07T06:56:57.649Z,71.63
2022-09-07T06:59:25.670Z,72.29
2022-09-07T07:01:53.624Z,70.60
2022-09-07T07:04:21.964Z,70.89
2022-09-07T07:06:51.933Z,70.34
2022-09-07T07:09:19.898Z,71.35
2022-09-07T07:11:48.240Z,70.24
2022-09-07T07:14:17.864Z,69.54
2022-09-07T07:16:46.804Z,69.19
2022-09-07T07:19:15.861Z,68.05
2022-09-07T07:22:07.749Z,68.75
2022-09-07T07:24:33.397Z,68.90
2022-09-07T07:27:03.422Z,69.51
2022-09-07T07:29:31.716Z,68.80
2022-09-07T07:32:00.731Z,68.15
2022-09-07T07:34:29.845Z,66.69
2022-09-07T07:36:58.036Z,66.37
2022-09-07T07:42:16.038Z,66.98
2022-09-07T07:44:44.057Z,65.67
2022-09-07T07:47:12.446Z,66.66
2022-09-07T07:49:40.300Z,66.00
2022-09-07T07:54:56.492Z,65.81
2022-09-07T07:57:26.380Z,63.27
2022-09-07T07:59:55.871Z,62.40
2022-09-07T08:02:24.097Z,61.44
2022-09-07T08:04:52.922Z,64.50
2022-09-07T08:07:22.348Z,62.73
2022-09-07T08:09:50.943Z,62.38
2022-09-07T08:12:20.497Z,63.93
2022-09-07T08:14:49.887Z,63.70
2022-09-07T08:17:18.305Z,63.55
2022-09-07T08:19:46.211Z,63.85
2022-09-07T08:22:14.108Z,62.77
2022-09-07T08:24:43.429Z,61.07
2022-09-07T08:27:11.322Z,60.36
2022-09-07T08:29:39.112Z,61.18
2022-09-07T08:32:08.350Z,60.84
2022-09-07T08:34:38.291Z,59.49
2022-09-07T08:37:06.247Z,58.88
2022-09-07T08:39:36.694Z,59.70
2022-09-07T08:42:34.312Z,59.27
2022-09-07T08:45:09.472Z,59.58
2022-09-07T08:47:46.789Z,59.17
2022-09-07T08:50:21.947Z,61.13
2022-09-07T08:52:56.339Z,60.74
2022-09-07T08:55:31.181Z,60.72
2022-09-07T08:58:26.690Z,59.72
2022-09-07T09:06:53.464Z,59.85
2022-09-07T09:09:40.817Z,60.61
2022-09-07T09:12:26.732Z,59.26
2022-09-07T09:15:15.715Z,57.68
2022-09-07T09:17:54.763Z,56.25
2022-09-07T09:20:31.645Z,57.05
2022-09-07T09:23:10.795Z,56.31
2022-09-07T09:25:45.756Z,54.75
2022-09-07T09:28:13.633Z,55.45
2022-09-07T09:30:42.259Z,55.53
2022-09-07T09:33:18.765Z,56.18
2022-09-07T09:35:51.534Z,56.14
2022-09-07T09:38:39.888Z,56.06
2022-09-07T09:41:11.257Z,56.54
2022-09-07T09:43:48.246Z,57.44
2022-09-07T09:46:24.627Z,56.13
2022-09-07T09:48:57.181Z,55.43
2022-09-07T09:54:27.111Z,55.92
2022-09-07T09:56:55.145Z,56.94
2022-09-07T10:05:30.467Z,60.66
2022-09-07T10:08:02.591Z,59.42
2022-09-07T10:10:31.511Z,60.47
2022-09-07T10:12:59.922Z,62.69
2022-09-07T10:15:40.129Z,61.96
2022-09-07T10:18:22.486Z,61.69
2022-09-07T10:20:50.376Z,61.48
2022-09-07T10:23:25.300Z,61.99
2022-09-07T10:25:53.429Z,64.09
2022-09-07T10:28:24.497Z,64.59
2022-09-07T10:31:15.829Z,65.17
2022-09-07T10:37:01.784Z,65.69
2022-09-07T10:39:37.113Z,64.19
2022-09-07T10:42:24.735Z,61.57
2022-09-07T10:45:12.335Z,62.99
2022-09-07T10:47:59.326Z,64.99
2022-09-07T10:50:32.415Z,61.03
2022-09-07T10:53:42.099Z,60.52
2022-09-07T10:56:21.038Z,61.68
2022-09-07T10:59:10.767Z,62.26
2022-09-07T11:01:59.963Z,61.38
2022-09-07T11:04:47.550Z,61.12
2022-09-07T11:07:48.540Z,62.38
2022-09-07T11:10:35.578Z,61.33
2022-09-07T11:13:10.383Z,61.38
2022-09-07T11:15:44.800Z,61.58
2022-09-07T11:18:20.256Z,61.03
2022-09-07T11:20:55.378Z,61.64
2022-09-07T11:23:40.374Z,62.89
2022-09-07T11:26:19.561Z,59.91
2022-09-07T11:31:49.026Z,57.79
2022-09-07T11:34:24.651Z,57.36
2022-09-07T11:37:00.978Z,58.30
2022-09-07T11:39:35.834Z,56.54
2022-09-07T11:45:15.244Z,56.14
2022-09-07T11:47:50.893Z,56.39
2022-09-07T11:50:23.705Z,56.79
2022-09-07T11:52:57.832Z,55.91
2022-09-07T11:55:29.643Z,56.31
2022-09-07T11:58:30.261Z,55.76
2022-09-07T12:01:21.234Z,52.86
2022-09-07T12:04:16.600Z,52.64
2022-09-07T12:07:21.987Z,52.89
2022-09-07T12:10:14.468Z,51.53
2022-09-07T12:13:07.963Z,51.27
2022-09-07T12:15:53.018Z,52.16
2022-09-07T12:19:01.859Z,49.51
2022-09-07T12:21:42.392Z,48.26
2022-09-07T12:24:43.857Z,47.16
2022-09-07T12:27:39.696Z,47.93
2022-09-07T12:30:59.660Z,48.12
2022-09-07T12:33:33.304Z,47.32
2022-09-07T12:36:22.721Z,48.60
2022-09-07T12:39:20.767Z,48.00
2022-09-07T12:44:41.901Z,43.33
2022-09-07T12:47:36.618Z,41.99
2022-09-07T12:50:24.493Z,43.95
2022-09-07T12:53:25.590Z,42.92
2022-09-07T12:56:27.525Z,41.54
2022-09-07T12:59:34.590Z,41.53
2022-09-07T13:02:30.541Z,40.36
2022-09-07T13:05:19.500Z,40.13
2022-09-07T13:08:14.401Z,41.23
2022-09-07T13:10:43.659Z,42.83
2022-09-07T13:17:16.057Z,42.11
2022-09-07T13:20:16.926Z,42.21
2022-09-07T13:23:29.775Z,40.73
2022-09-07T13:26:00.306Z,41.74
2022-09-07T13:28:55.841Z,43.25
2022-09-07T13:31:48.470Z,42.38
2022-09-07T13:34:48.537Z,42.84
2022-09-07T13:37:21.902Z,41.74
2022-09-07T13:39:54.821Z,41.49
2022-09-07T13:42:28.355Z,41.44
2022-09-07T13:45:00.444Z,41.39
2022-09-07T13:47:51.915Z,40.63
2022-09-07T13:50:35.922Z,39.07
2022-09-07T13:53:32.658Z,40.14
2022-09-07T13:56:18.894Z,41.43
2022-09-07T13:58:49.775Z,42.05
2022-09-07T14:01:23.185Z,40.52
2022-09-07T14:03:55.107Z,41.00
2022-09-07T14:06:35.398Z,40.72
2022-09-07T14:09:13.401Z,41.07
2022-09-07T14:11:44.651Z,40.11
2022-09-07T14:14:18.856Z,39.78
2022-09-07T14:16:54.787Z,39.87
2022-09-07T14:19:26.061Z,38.26
2022-09-07T14:22:00.504Z,39.78
2022-09-07T14:24:38.037Z,38.65
2022-09-07T14:27:19.863Z,38.53
2022-09-07T14:29:48.318Z,37.74
2022-09-07T14:32:22.650Z,36.91
2022-09-07T14:34:52.130Z,36.10
2022-09-07T14:37:23.323Z,37.28
2022-09-07T14:39:52.849Z,35.40
2022-09-07T14:42:24.590Z,34.67
2022-09-07T14:45:18.348Z,34.48
2022-09-07T14:47:52.290Z,35.06
2022-09-07T14:50:24.492Z,35.49
2022-09-07T14:55:46.473Z,37.16
2022-09-07T14:58:24.589Z,37.48
2022-09-07T15:03:59.270Z,36.58
2022-09-07T15:09:35.209Z,36.80
2022-09-07T15:12:17.623Z,38.10
2022-09-07T15:14:47.834Z,38.10
2022-09-07T15:20:47.017Z,38.53
2022-09-07T15:23:19.523Z,38.50
2022-09-07T15:25:53.717Z,38.28
2022-09-07T15:34:13.056Z,38.69
2022-09-07T15:36:46.177Z,38.52
2022-09-07T15:39:21.256Z,39.22
2022-09-07T15:41:51.457Z,38.13
2022-09-07T15:44:24.419Z,38.51
2022-09-07T15:49:50.389Z,38.71
2022-09-07T15:52:20.643Z,39.77
2022-09-07T15:54:48.461Z,40.25
2022-09-07T16:00:06.856Z,40.90
2022-09-07T16:05:30.910Z,40.80
2022-09-07T16:11:05.231Z,40.74
2022-09-07T16:13:34.290Z,41.16
2022-09-07T16:16:06.008Z,42.48
2022-09-07T16:18:34.968Z,42.68
2022-09-07T16:21:11.894Z,42.69
2022-09-07T16:23:44.454Z,43.02
2022-09-07T16:26:13.609Z,42.85
2022-09-07T16:28:44.766Z,42.61
2022-09-07T16:31:16.593Z,43.16
2022-09-07T16:33:44.802Z,43.55
2022-09-07T16:36:17.694Z,43.21
2022-09-07T16:38:49.678Z,43.67
2022-09-07T16:41:20.464Z,43.67
2022-09-07T16:43:49.415Z,43.58
2022-09-07T16:46:20.532Z,43.47
2022-09-07T16:48:51.546Z,43.43
2022-09-07T16:51:22.581Z,43.66
2022-09-07T16:53:55.107Z,43.05
2022-09-07T16:56:27.051Z,42.48
2022-09-07T16:58:57.634Z,42.57
2022-09-07T17:01:28.380Z,42.44
2022-09-07T17:03:56.763Z,42.40
2022-09-07T17:06:27.685Z,42.64
2022-09-07T17:08:59.499Z,42.65
2022-09-07T17:11:32.439Z,42.60
2022-09-07T17:14:01.352Z,42.89
2022-09-07T17:16:32.291Z,43.55
2022-09-07T17:21:53.003Z,44.50
2022-09-07T17:24:22.425Z,44.97
2022-09-07T17:26:50.270Z,45.56
2022-09-07T17:29:18.283Z,45.89
2022-09-07T17:34:39.923Z,46.52
2022-09-07T17:37:08.332Z,46.65
2022-09-07T17:39:38.870Z,47.13
2022-09-07T17:42:07.507Z,47.55
2022-09-07T17:44:37.972Z,48.39
2022-09-07T17:47:10.702Z,48.69
2022-09-07T17:49:40.009Z,48.42
2022-09-07T17:52:07.893Z,49.28
2022-09-07T17:54:35.757Z,49.87
2022-09-07T17:57:05.748Z,50.29
2022-09-07T18:02:21.970Z,51.34
2022-09-07T18:04:50.218Z,51.33
2022-09-07T18:07:18.277Z,51.63
2022-09-07T18:09:48.089Z,52.70
2022-09-07T18:12:17.326Z,52.76
2022-09-07T18:14:45.172Z,53.07
2022-09-07T18:17:13.291Z,53.52
2022-09-07T18:19:42.669Z,53.24
2022-09-07T18:22:11.062Z,53.61
2022-09-07T18:24:40.342Z,54.20
2022-09-07T18:27:09.833Z,54.37
2022-09-07T18:29:39.196Z,54.20
2022-09-07T18:32:09.874Z,54.61
2022-09-07T18:34:41.152Z,54.47
2022-09-07T18:37:12.137Z,54.50
2022-09-07T18:39:41.390Z,54.66
2022-09-07T18:42:09.900Z,54.78
2022-09-07T18:47:29.322Z,54.94
2022-09-07T18:49:58.606Z,55.63
2022-09-07T18:55:18.370Z,55.78
2022-09-07T18:57:48.520Z,55.95
2022-09-07T19:00:18.151Z,56.26
2022-09-07T19:02:51.174Z,56.44
2022-09-07T19:08:08.494Z,56.79
2022-09-07T19:10:38.312Z,57.03
2022-09-07T19:13:06.520Z,56.95
2022-09-07T19:15:38.086Z,57.38
2022-09-07T19:18:09.481Z,57.37
2022-09-07T19:20:37.671Z,57.89
2022-09-07T19:23:07.071Z,58.17
2022-09-07T19:25:42.928Z,57.89
2022-09-07T19:28:11.175Z,58.13
2022-09-07T19:30:40.506Z,58.54
2022-09-07T19:33:12.064Z,58.79
2022-09-07T19:35:39.947Z,58.90
2022-09-07T19:38:08.214Z,59.02
2022-09-07T19:40:37.292Z,59.34
2022-09-07T19:43:06.576Z,59.42
2022-09-07T19:45:39.262Z,59.51
2022-09-07T19:48:09.197Z,59.65
2022-09-07T19:50:37.207Z,59.84
2022-09-07T19:53:05.693Z,59.56
2022-09-07T19:55:35.994Z,59.30
2022-09-07T19:58:04.033Z,59.57
2022-09-07T20:00:40.095Z,59.34
2022-09-07T20:03:10.837Z,59.13
2022-09-07T20:05:41.190Z,59.21
2022-09-07T20:08:09.466Z,59.13
2022-09-07T20:10:37.664Z,59.93
2022-09-07T20:13:08.118Z,59.59
2022-09-07T20:15:42.511Z,59.68
2022-09-07T20:18:12.293Z,59.56
2022-09-07T20:20:45.481Z,59.83
2022-09-07T20:23:15.126Z,59.87
2022-09-07T20:25:43.973Z,60.19
2022-09-07T20:28:13.950Z,60.02
2022-09-07T20:30:43.685Z,60.49
2022-09-07T20:33:13.047Z,60.06
2022-09-07T20:35:44.691Z,60.17
2022-09-07T20:38:12.528Z,60.40
2022-09-07T20:40:51.079Z,60.51
2022-09-07T20:43:19.190Z,60.12
2022-09-07T20:45:47.812Z,60.63
2022-09-07T20:48:17.107Z,60.49
2022-09-07T20:50:55.260Z,60.26
2022-09-07T20:53:24.001Z,60.03
2022-09-07T20:55:59.284Z,60.41
2022-09-07T20:58:27.045Z,60.12
2022-09-07T21:00:55.062Z,60.13
2022-09-07T21:03:25.972Z,60.34
2022-09-07T21:05:54.831Z,60.00
2022-09-07T21:08:23.195Z,60.08
2022-09-07T21:10:51.454Z,59.90
2022-09-07T21:13:19.759Z,60.17
2022-09-07T21:15:47.616Z,60.01
2022-09-07T21:18:18.825Z,60.15
2022-09-07T21:21:18.929Z,60.89
2022-09-07T21:23:49.069Z,60.37
2022-09-07T21:26:21.183Z,60.85
2022-09-07T21:28:55.762Z,60.62
2022-09-07T21:31:26.518Z,60.80
2022-09-07T21:33:56.342Z,60.47
2022-09-07T21:36:26.835Z,61.06
2022-09-07T21:38:55.836Z,61.03
2022-09-07T21:41:25.650Z,61.34
2022-09-07T21:43:56.925Z,61.28
2022-09-07T21:46:26.510Z,61.66
2022-09-07T21:48:56.965Z,61.51
2022-09-07T21:51:28.776Z,61.88
2022-09-07T21:54:00.272Z,62.18
2022-09-07T21:56:31.090Z,62.00
2022-09-07T21:59:02.154Z,62.40
2022-09-07T22:01:32.189Z,62.32
2022-09-07T22:04:03.451Z,62.96
2022-09-07T22:06:33.940Z,63.11
2022-09-07T22:09:03.946Z,63.24
2022-09-07T22:11:32.465Z,63.29
2022-09-07T22:14:04.325Z,63.29
2022-09-07T22:16:34.281Z,63.52
2022-09-07T22:19:02.793Z,63.67
2022-09-07T22:21:33.996Z,63.72
2022-09-07T22:24:05.955Z,63.94
2022-09-07T22:26:42.371Z,64.11
2022-09-07T22:29:12.979Z,63.86
2022-09-07T22:31:44.641Z,63.65
2022-09-07T22:34:12.650Z,64.19
2022-09-07T22:36:44.321Z,64.35
2022-09-07T22:39:15.326Z,64.33
2022-09-07T22:41:45.249Z,64.42
2022-09-07T22:44:17.826Z,64.50
2022-09-07T22:46:48.085Z,64.96
2022-09-07T22:49:17.292Z,65.09
2022-09-07T22:51:48.053Z,65.05
2022-09-07T22:54:16.240Z,65.23
2022-09-07T22:56:44.172Z,65.09
2022-09-07T22:59:14.090Z,64.93
2022-09-07T23:01:42.503Z,64.57
2022-09-07T23:04:11.701Z,64.98
2022-09-07T23:06:43.147Z,64.51
2022-09-07T23:09:16.143Z,65.15
2022-09-07T23:11:45.512Z,64.78
2022-09-07T23:14:15.892Z,64.36
2022-09-07T23:16:45.090Z,64.07
2022-09-07T23:19:15.043Z,64.23
2022-09-07T23:21:44.130Z,64.38
2022-09-07T23:24:15.870Z,64.32
2022-09-07T23:26:46.632Z,64.31
2022-09-07T23:29:16.216Z,64.40
2022-09-07T23:31:46.962Z,65.07
2022-09-07T23:34:15.119Z,65.05
2022-09-07T23:36:43.049Z,65.48
2022-09-07T23:39:11.219Z,65.83
2022-09-07T23:41:41.158Z,65.77
2022-09-07T23:44:09.326Z,65.65
2022-09-07T23:46:37.727Z,66.00
2022-09-07T23:49:05.709Z,65.66
2022-09-07T23:51:33.730Z,65.38
2022-09-07T23:54:01.773Z,65.27
2022-09-07T23:56:32.645Z,65.62
2022-09-07T23:59:01.908Z,65.44
